Home > Products > Valid Products > MTR

000
SAZS31 NSTU 241453
MTRPPG
METAR NSTU 241450Z 09009KT 10SM FEW020 SCT100 SCT200 27/24 A2984 RMK
SLP105 8/141 T02670243 57012=




000
SAZS31 NSTU 241356
MTRPPG
METAR NSTU 241354Z 10007KT 10SM FEW020 SCT200 27/24 A2984 RMK SLP105
T02670241=




000
SAZS31 NSTU 241354
MTRPPG
METAR NSTU 241251Z 10006KT 10SM FEW020 SCT100 SCT200 27/24 A2984 RMK
SLP107 T02670240=




000
SAZS31 NSTU 241156
MTRPPG
METAR NSTU 241151Z 10006KT 10SM FEW020 SCT100 SCT200 27/24 A2987 RMK
SLP117 8/141 T02680240 10275 20268 57017=




000
SAZS31 NSTU 241051
MTRPPG
METAR NSTU 241050Z 11006KT 10SM FEW020 SCT180 27/24 A2989 RMK SLP124
T02700239 403100269=




000
SAZS31 NSTU 241051
MTRPPG
METAR NSTU 241050Z 11006KT 10SM FEW020 SCT180 27/24 A2989 RMK SLP124
T02700239 403100269=




000
SAZS31 NSTU 240954
MTRPPG
METAR NSTU 240952Z 10008KT 10SM SCT020 SCT040 27/24 A2991 RMK SLP129
T02720244=




000
SAZS31 NSTU 240853
MTRPPG
METAR NSTU 240850Z 09008KT 10SM SCT020 SCT040 27/24 A2992 RMK SLP134
8/400 T02710239 52015




000
SAZS31 NSTU 240752
MTRPPG
METAR NSTU 240751Z 09006KT 10SM FEW020 BKN040 27/24 A2991 RMK SLP130
T02710240




000
SAZS31 NSTU 240653
MTRPPG
METAR NSTU 240651Z 12007KT 10SM FEW020 SCT040 27/24 A2990 RMK SLP125
T02730238




000
SAZS31 NSTU 240552
MTRPPG
METAR NSTU 240550Z 10007KT 10SM FEW021 SCT040 28/24 A2988 RMK SLP119
8/400 T02750236 10310 20275 52008




000
SAZS31 NSTU 240456
MTRPPG
METAR NSTU 240454Z 10008KT 12SM FEW023 SCT040 28/24 A2987 RMK SLP115
T02800237




000
SAZS31 NSTU 240456
MTRPPG
METAR NSTU 240454Z 10008KT 12SM FEW023 SCT040 28/24 A2987 RMK SLP115
T02800237




000
SAZS31 NSTU 240354
MTRPPG
METAR NSTU 240350Z 10010KT 12SM SCT022 SCT040 30/24 A2985 RMK SLP110
T02950241




000
SAZS31 NSTU 240354
MTRPPG
METAR NSTU 240350Z 10010KT 12SM SCT022 SCT040 30/24 A2985 RMK SLP110
T02950241




000
SAZS31 NSTU 240259
MTRPPG
METAR NSTU 240255Z 10009KT 12SM SCT021 BKN040 29/24 A2986 RMK SLP110
8/800 T02900242 56008




000
SAZS31 NSTU 240259
MTRPPG
METAR NSTU 240255Z 10009KT 12SM SCT021 BKN040 29/24 A2986 RMK SLP110
8/800 T02900242 56008




000
SAZS31 NSTU 240153
MTRPPG
METAR NSTU 240150Z 10009KT 12SM SCT021 BKN040 BKN100 30/24 A2985 RMK
SLP110 T02980243=




000
SAZS31 NSTU 240153
MTRPPG
METAR NSTU 240150Z 10009KT 12SM SCT021 BKN040 BKN100 30/24 A2985 RMK
SLP110 T02980243=




000
SAZS31 NSTU 240054
MTRPPG
METAR NSTU 240052Z 10009KT 12SM FEW023TCU SCT050 BKN100 31/24 A2987
RMK TCU N SLP115 T03100243=




000
SAZS31 NSTU 232355
MTRPPG
METAR NSTU 232351Z 09008KT 12SM FEW023 SCT100 31/25 A2988 RMK SLP119
8/140 T03050246 10307 20273 57012=




000
SAZS31 NSTU 232255
MTRPPG
METAR NSTU 232253Z 11009KT 12SM FEW023 SCT050 BKN100 31/24 A2989 RMK
SLP124 T03070242=




000
SAZS31 NSTU 232151
MTRPPG
METAR NSTU 232150Z 11009KT 12SM FEW023 SCT050 BKN100 31/25 A2991 RMK
SLP129 T03070246=




000
SAZS31 NSTU 232151
MTRPPG
METAR NSTU 232150Z 11009KT 12SM FEW023 SCT050 BKN100 31/25 A2991 RMK
SLP129 T03070246=




000
SAZS31 NSTU 232054
MTRPPG
METAR NSTU 232050Z 10008KT 12SM FEW023 SCT180 30/24 A2991 RMK SLP130
8/109 T03040244 52010=




000
SAZS31 NSTU 231958
MTRPPG
METAR NSTU 231955Z 19011KT 12SM FEW023 SCT100 BKN200 29/24 A2991 RMK
SLP130 T02940242=




000
SAZS31 NSTU 231854
MTRPPG
METAR NSTU 231851Z 09011KT 12SM FEW023 SCT050 BKN100 29/24 A2990 RMK
SLP127 T02880242=




000
SAZS31 NSTU 231854
MTRPPG
METAR NSTU 231851Z 09011KT 12SM FEW023 SCT050 BKN100 29/24 A2990 RMK
SLP127 T02880242=




000
SAZS31 NSTU 231754
MTRPPG
METAR NSTU 231750Z 09015KT 12SM SCT023 BKN110 27/24 A2989 RMK SLP120
 8/180 T02730239 10273 20269 51008=




000
SAZS31 NSTU 231754
MTRPPG
METAR NSTU 231750Z 09015KT 12SM SCT023 BKN110 27/24 A2989 RMK SLP120
 8/180 T02730239 10273 20269 51008=




000
SAZS31 NSTU 231659
MTRPPG
METAR NSTU 231656Z 09012KT 12SM SCT023 SCT045 BKN110 27/24 A2987 RMK
 SLP117 T02690235=




000
SAZS31 NSTU 231659
MTRPPG
METAR NSTU 231656Z 09012KT 12SM SCT023 SCT045 BKN110 27/24 A2987 RMK
 SLP117 T02690235=




000
SAZS31 NSTU 231558
MTRPPG
METAR NSTU 231556Z 09010KT 10SM SCT023 OVC060 27/24 A2987 RMK SLP115
 T02700238=




000
SAZS31 NSTU 231558
MTRPPG
METAR NSTU 231358Z 10012KT 10SM SCT023 OVC060 27/24 A2985 RMK SLP110
 T02690235=




000
SAZS31 NSTU 231558
MTRPPG
METAR NSTU 231556Z 09010KT 10SM SCT023 OVC060 27/24 A2987 RMK SLP115
 T02700238=




000
SAZS31 NSTU 231558
MTRPPG
METAR NSTU 231358Z 10012KT 10SM SCT023 OVC060 27/24 A2985 RMK SLP110
 T02690235=




000
SAZS31 NSTU 231303
MTRPPG
METAR NSTU 231258Z 11011KT 10SM SCT023 OVC060 27/23 A2987 RMK SLP117
 T02710234=




000
SAZS31 NSTU 231156
MTRPPG
METAR NSTU 231150Z 11009KT 10SM SCT023 OVC060 27/24 A2989 RMK SLP122
 8/8// T02720239 10273 20270 56012=




000
SAZS31 NSTU 231053
MTRPPG
METAR NSTU 231050Z 09011KT 10SM FEW023 BKN060 27/24 A2990 RMK SLP125
 T02720238 403050266=




000
SAZS31 NSTU 230954
MTRPPG
METAR NSTU 230951Z 10011KT 10SM FEW023 BKN060 27/24 A2991 RMK SLP130
 T02720238=




000
SAZS31 NSTU 230954
MTRPPG
METAR NSTU 230951Z 10011KT 10SM FEW023 BKN060 27/24 A2991 RMK SLP130
 T02720238=




000
SAZS31 NSTU 230857
MTRPPG
METAR NSTU 230854Z 09011KT 10SM SCT021 BKN040 27/24 A2992 RMK SLP134
8/400 T02720235 52010




000
SAZS31 NSTU 230800
MTRPPG
METAR NSTU 230755Z 09011KT 10SM SCT021 BKN040 27/24 A2990 RMK SLP125
T02730238




000
SAZS31 NSTU 230656
MTRPPG
METAR NSTU 230652Z 09009KT 10SM SCT021 BKN040 27/23 A2990 RMK SLP125
T02700234




000
SAZS31 NSTU 230601
MTRPPG
METAR NSTU 230553Z 09008KT 10SM FEW023 SCT060 BKN100 BKN250 27/23
A2989 RMK SLP124 8/871 T02710229 10301 20271 52015




000
SAZS31 NSTU 230453
MTRPPG
METAR NSTU 230450Z 10009KT 12SM SCT023 BKN040 BKN080 BKN250 28/23
A2987 RMK SLP117 T02770232




000
SAZS31 NSTU 230453
MTRPPG
METAR NSTU 230450Z 10009KT 12SM SCT023 BKN040 BKN080 BKN250 28/23
A2987 RMK SLP117 T02770232




000
SAZS31 NSTU 230353
MTRPPG
METAR NSTU 230350Z 12009KT 12SM SCT021 SCT040 BKN100 BKN250 29/24
A2985 RMK SLP110 T02850235




000
SAZS31 NSTU 230353
MTRPPG
METAR NSTU 230350Z 12009KT 12SM SCT021 SCT040 BKN100 BKN250 29/24
A2985 RMK SLP110 T02850235




000
SAZS31 NSTU 230258
MTRPPG
METAR NSTU 230250Z 13008KT 12SM FEW024 SCT040 BKN100 BKN250 29/24
A2985 RMK SLP108 8/871 T02880235 56005




000
SAZS31 NSTU 230206
MTRPPG
METAR NSTU 230153Z 11010KT 12SM FEW023 SCT050 BKN100 28/23 A2985 RMK
SLP110 T02840232=




000
SAZS31 NSTU 230206
MTRPPG
METAR NSTU 230153Z 11010KT 12SM FEW023 SCT050 BKN100 28/23 A2985 RMK
SLP110 T02840232=




000
SAZS31 NSTU 230054
MTRPPG
METAR NSTU 221952Z 10011KT 12SM SCT025 SCT050 BKN100 BKN200 29/24
A2992 RMK SLP132 T02940237=




000
SAZS31 NSTU 230054
MTRPPG
METAR NSTU 221952Z 10011KT 12SM SCT025 SCT050 BKN100 BKN200 29/24
A2992 RMK SLP132 T02940237=




000
SAZS31 NSTU 230052
MTRPPG
METAR NSTU 230050Z 11010KT 12SM FEW023 SCT050 BKN100 30/23 A2986 RMK
SLP112 T02960233=




000
SAZS31 NSTU 230052
MTRPPG
METAR NSTU 230050Z 11010KT 12SM FEW023 SCT050 BKN100 30/23 A2986 RMK
SLP112 T02960233=




000
SAZS31 NSTU 222354
MTRPPG
METAR NSTU 222350Z 13010KT 12SM FEW023 SCT050 BKN100 BKN200 30/24
A2986 RMK SLP113 8/411 T03010235 10305 20272 57019=




000
SAZS31 NSTU 222354
MTRPPG
METAR NSTU 222350Z 13010KT 12SM FEW023 SCT050 BKN100 BKN200 30/24
A2986 RMK SLP113 8/411 T03010235 10305 20272 57019=




000
SAZS31 NSTU 222254
MTRPPG
METAR NSTU 222250Z 13010KT 12SM FEW023TCU SCT050 BKN100 BKN200 31/24
A2989 RMK TCU NW-NE SLP124 T03050240=




000
SAZS31 NSTU 222254
MTRPPG
METAR NSTU 222250Z 13010KT 12SM FEW023TCU SCT050 BKN100 BKN200 31/24
A2989 RMK TCU NW-NE SLP124 T03050240=




000
SAZS31 NSTU 222152
MTRPPG
METAR NSTU 222150Z 11010KT 12SM SCT023 BKN200 30/24 A2990 RMK SLP127
T02980236=




000
SAZS31 NSTU 222058
MTRPPG
METAR NSTU 222055Z 10012KT 12SM SCT023 BKN200 29/23 A2992 RMK SLP132
8/108 T02870234 52008=




000
SAZS31 NSTU 221859
MTRPPG
METAR NSTU 221856Z 10012KT 12SM SCT024TCU SCT050 BKN100 OVC200 29/24
A2992 RMK TCU NW-NE SLP132 T02850237=




000
SAZS31 NSTU 221754
MTRPPG
METAR NSTU 221750Z 11014KT 12SM FEW024 OVC120 27/23 A2989 RMK SLP124
 8/13/ T02720229 10272 20266 51014=




000
SAZS31 NSTU 221754
MTRPPG
METAR NSTU 221750Z 11014KT 12SM FEW024 OVC120 27/23 A2989 RMK SLP124
 8/13/ T02720229 10272 20266 51014=




000
SAZS31 NSTU 221654
MTRPPG
METAR NSTU 221651Z 10016KT 12SM FEW024 BKN220 27/23 A2987 RMK SLP115
 T02660233=




000
SAZS31 NSTU 221654
MTRPPG
METAR NSTU 221651Z 10016KT 12SM FEW024 BKN220 27/23 A2987 RMK SLP115
 T02660233=




000
SAZS31 NSTU 221653
MTRPPG
METAR NSTU 221553Z 11014KT 10SM FEW024 27/23 A2986 RMK SLP112
T02660231=




000
SAZS31 NSTU 221653
MTRPPG
METAR NSTU 221553Z 11014KT 10SM FEW024 27/23 A2986 RMK SLP112
T02660231=




000
SAZS31 NSTU 221521
MTRPPG
METAR NSTU 221450Z 11013KT 10SM FEW024 27/23 A2985 RMK SLP110 8/100
T02670227 56005=




000
SAZS31 NSTU 221520
MTRPPG
METAR NSTU 221352Z 09012KT 10SM FEW024 27/23 A2983 RMK SLP103
T02660227=




000
SAZS31 NSTU 221252
MTRPPG
METAR NSTU 221250Z 10012KT 10SM FEW024 27/23 A2985 RMK SLP110
T02680226=




000
SAZS31 NSTU 221206
MTRPPG
METAR NSTU 221150Z 09012KT 10SM FEW024 27/23 A2987 RMK SLP115 8/100
T02670226 10271 20267 56007=




000
SAZS31 NSTU 221052
MTRPPG
METAR NSTU 221050Z 10013KT 10SM FEW024 27/23 A2989 RMK SLP122
T02690228 403040259=




000
SAZS31 NSTU 220955
MTRPPG
METAR NSTU 220952Z 10015KT 10SM FEW024 27/23 A2989 RMK SLP124
T02710227=




000
SAZS31 NSTU 220955
MTRPPG
METAR NSTU 220952Z 10015KT 10SM FEW024 27/23 A2989 RMK SLP124
T02710227=




000
SAZS31 NSTU 220853
MTRPPG
METAR NSTU 220852Z 11013KT 10SM FEW024 27/22 A2989 RMK SLP122 8/100
T02700222 52019=




000
SAZS31 NSTU 220756
MTRPPG
METAR NSTU 220754Z 10011KT 10SM SCT024 27/23 A2986 RMK SLP113
T02690227=




000
SAZS31 NSTU 220653
MTRPPG
METAR NSTU 220652Z 11011KT 10SM FEW024 27/23 A2985 RMK SLP110
T02690226=




000
SAZS31 NSTU 220556
MTRPPG
METAR NSTU 220554Z 12011KT 10SM FEW024 27/22 A2983 RMK SLP103 8/100
T02700222 10304 20270 52007=




000
SAZS31 NSTU 220556
MTRPPG
METAR NSTU 220554Z 12011KT 10SM FEW024 27/22 A2983 RMK SLP103 8/100
T02700222 10304 20270 52007=




000
SAZS31 NSTU 220451
MTRPPG
METAR NSTU 220450Z 09010KT 12SM FEW024 28/22 A2982 RMK SLP100
T02760222=




000
SAZS31 NSTU 220451
MTRPPG
METAR NSTU 220450Z 09010KT 12SM FEW024 28/22 A2982 RMK SLP100
T02760222=




000
SAZS31 NSTU 220353
MTRPPG
METAR NSTU 220352Z 11010KT 12SM FEW024 29/22 A2981 RMK SLP097
T02860223=




000
SAZS31 NSTU 220251
MTRPPG
METAR NSTU 220250Z 11011KT 12SM FEW025 29/22 A2981 RMK SLP097 8/100
T02930224 56008=




000
SAZS31 NSTU 220251
MTRPPG
METAR NSTU 220250Z 11011KT 12SM FEW025 29/22 A2981 RMK SLP097 8/100
T02930224 56008=




000
SAZS31 NSTU 220151
MTRPPG
METAR NSTU 220150Z 10010KT 12SM SCT035 SCT100 30/23 A2983 RMK SLP100
T02990227=




000
SAZS31 NSTU 220052
MTRPPG
METAR NSTU 220050Z 10010KT 12SM SCT035 30/23 A2983 RMK SLP102
T03030225=




000
SAZS31 NSTU 212359
MTRPPG
METAR NSTU 212357Z 10012KT 12SM FEW030 SCT100 BKN200 30/23 A2984 RMK
SLP105 8/141 T03040227 10304 20265 57020=




000
SAZS31 NSTU 212250
MTRPPG
METAR NSTU 212250Z 10011KT 12SM SCT030 BKN100 BKN200 30/23 A2986 RMK
SLP112 T03040231=




000
SAZS31 NSTU 212250
MTRPPG
METAR NSTU 212250Z 10011KT 12SM SCT030 BKN100 BKN200 30/23 A2986 RMK
SLP112 T03040231=




000
SAZS31 NSTU 212153
MTRPPG
METAR NSTU 212152Z 10013KT 12SM SCT030 BKN100 BKN200 30/23 A2987 RMK
SLP117 T03040227=




000
SAZS31 NSTU 212153
MTRPPG
METAR NSTU 212152Z 10013KT 12SM SCT030 BKN100 BKN200 30/23 A2987 RMK
SLP117 T03040227=




000
SAZS31 NSTU 212055
MTRPPG
METAR NSTU 212053Z 10013KT 12SM SCT030 BKN100 30/23 A2990 RMK SLP125
8/140 T02960228 52003=




000
SAZS31 NSTU 211953
MTRPPG
METAR NSTU 211952Z 10011KT 12SM SCT030 BKN100 BKN200 29/23 A2990 RMK
SLP127 T02860227=




000
SAZS31 NSTU 211853
MTRPPG
METAR NSTU 211850Z 12012KT 12SM SCT024 BKN100 BKN200 28/22 A2992 RMK
SLP132 T02810222=




000
SAZS31 NSTU 211751
MTRPPG
METAR NSTU 211750Z 11011KT 12SM SCT024 SCT210 27/22 A2989 RMK SLP122
 8/101 T02650218 10265 20259 51010=




000
SAZS31 NSTU 211656
MTRPPG
METAR NSTU 211652Z 11014KT 12SM FEW024 BKN210 26/22 A2988 RMK SLP119
 T02590215=




000
SAZS31 NSTU 211656
MTRPPG
METAR NSTU 211652Z 11014KT 12SM FEW024 BKN210 26/22 A2988 RMK SLP119
 T02590215=




000
SAZS31 NSTU 211555
MTRPPG
METAR NSTU 211550Z 11011KT 10SM FEW024 26/22 A2986 RMK SLP113
T02600217=




000
SAZS31 NSTU 211555
MTRPPG
METAR NSTU 211550Z 11011KT 10SM FEW024 26/22 A2986 RMK SLP113
T02600217=




    US Dept of Commerce
    National Oceanic and Atmospheric Administration
    National Weather Service
    1325 East West Highway
    Silver Spring, MD 20910
    Page Author: NWS Internet Services Team
Disclaimer
Information Quality
Credits
Glossary
Privacy Policy
Freedom of Information Act (FOIA)
About Us
Career Opportunities